createdAt,value
2024-04-18T00:01:31.439Z,3.41
2024-04-18T00:04:17.823Z,3.39
2024-04-18T00:07:06.093Z,3.38
2024-04-18T00:09:51.965Z,3.36
2024-04-18T00:12:50.783Z,3.34
2024-04-18T00:15:46.104Z,3.32
2024-04-18T00:18:52.238Z,3.30
2024-04-18T00:21:44.687Z,3.29
2024-04-18T00:24:46.175Z,3.27
2024-04-18T00:27:41.492Z,3.23
2024-04-18T00:30:28.287Z,3.21
2024-04-18T00:33:14.671Z,3.19
2024-04-18T00:36:01.060Z,3.16
2024-04-18T00:39:06.309Z,3.13
2024-04-18T00:41:52.341Z,3.11
2024-04-18T00:44:48.531Z,3.09
2024-04-18T00:47:35.702Z,3.04
2024-04-18T00:50:28.550Z,3.00
2024-04-18T00:53:34.834Z,2.98
2024-04-18T00:56:42.214Z,2.96
2024-04-18T00:59:48.976Z,2.93
2024-04-18T01:02:35.508Z,2.92
2024-04-18T01:05:41.307Z,2.91
2024-04-18T01:08:27.341Z,2.89
2024-04-18T01:11:16.463Z,2.88
2024-04-18T01:14:12.874Z,2.86
2024-04-18T01:17:18.138Z,2.87
2024-04-18T01:20:04.646Z,2.86
2024-04-18T01:22:50.700Z,2.80
2024-04-18T01:25:57.312Z,2.81
2024-04-18T01:28:43.844Z,2.82
2024-04-18T01:31:49.833Z,2.81
2024-04-18T01:34:36.341Z,2.78
2024-04-18T01:37:34.970Z,2.79
2024-04-18T01:40:34.512Z,2.77
2024-04-18T01:43:40.178Z,2.73
2024-04-18T01:47:04.666Z,2.73
2024-04-18T01:49:50.858Z,2.74
2024-04-18T01:52:39.372Z,2.73
2024-04-18T01:55:25.457Z,2.75
2024-04-18T01:58:27.834Z,2.75
2024-04-18T02:01:13.995Z,2.74
2024-04-18T02:04:00.235Z,2.72
2024-04-18T02:06:46.272Z,2.73
2024-04-18T02:09:44.729Z,2.72
2024-04-18T02:12:46.216Z,2.76
2024-04-18T02:15:33.102Z,2.77
2024-04-18T02:18:33.220Z,2.77
2024-04-18T02:21:32.199Z,2.77
2024-04-18T02:24:18.681Z,2.77
2024-04-18T02:27:05.072Z,2.76
2024-04-18T02:29:51.327Z,2.77
2024-04-18T02:32:55.974Z,2.76
2024-04-18T02:35:42.181Z,2.75
2024-04-18T02:38:48.467Z,2.77
2024-04-18T02:41:34.556Z,2.77
2024-04-18T02:44:40.592Z,2.77
2024-04-18T02:47:27.212Z,2.78
2024-04-18T02:50:36.059Z,2.78
2024-04-18T02:53:23.482Z,2.77
2024-04-18T02:56:28.147Z,2.78
2024-04-18T02:59:27.923Z,2.80
2024-04-18T03:02:14.554Z,2.80
2024-04-18T03:05:00.972Z,2.83
2024-04-18T03:07:46.835Z,2.84
2024-04-18T03:10:33.008Z,2.86
2024-04-18T03:13:19.149Z,2.86
2024-04-18T03:16:11.287Z,2.85
2024-04-18T03:19:02.164Z,2.88
2024-04-18T03:22:08.289Z,2.91
2024-04-18T03:25:14.510Z,2.92
2024-04-18T03:28:20.832Z,2.93
2024-04-18T03:31:07.193Z,2.93
2024-04-18T03:33:53.703Z,2.93
2024-04-18T03:36:45.074Z,2.90
2024-04-18T03:39:48.996Z,2.82
2024-04-18T03:42:35.086Z,2.75
2024-04-18T03:45:21.127Z,2.69
2024-04-18T03:48:07.572Z,2.66
2024-04-18T03:51:11.987Z,2.62
2024-04-18T03:54:17.159Z,2.56
2024-04-18T03:57:12.578Z,2.52
2024-04-18T04:00:16.218Z,2.49
2024-04-18T04:03:02.367Z,2.48
2024-04-18T04:05:48.553Z,2.45
2024-04-18T04:08:34.895Z,2.45
2024-04-18T04:11:30.944Z,2.45
2024-04-18T04:14:17.134Z,2.46
2024-04-18T04:17:13.484Z,2.47
2024-04-18T04:19:59.693Z,2.49
2024-04-18T04:22:46.109Z,2.51
2024-04-18T04:25:41.510Z,2.51
2024-04-18T04:28:28.120Z,2.53
2024-04-18T04:31:14.400Z,2.54
2024-04-18T04:34:00.522Z,2.53
2024-04-18T04:36:46.664Z,2.52
2024-04-18T04:39:33.202Z,2.51
2024-04-18T04:42:38.131Z,2.51
2024-04-18T04:45:24.604Z,2.49
2024-04-18T04:48:26.419Z,2.48
2024-04-18T04:51:31.407Z,2.50
2024-04-18T04:54:22.099Z,2.52
2024-04-18T04:57:08.796Z,2.55
2024-04-18T04:59:54.739Z,2.54
2024-04-18T05:02:43.272Z,2.56
2024-04-18T05:05:38.149Z,2.60
2024-04-18T05:08:24.403Z,2.62
2024-04-18T05:11:10.559Z,2.64
2024-04-18T05:13:57.214Z,2.66
2024-04-18T05:17:06.757Z,2.69
2024-04-18T05:19:53.086Z,2.71
2024-04-18T05:22:54.852Z,2.73
2024-04-18T05:25:41.181Z,2.76
2024-04-18T05:29:02.597Z,2.79
2024-04-18T05:31:48.935Z,2.78
2024-04-18T05:34:36.029Z,2.80
2024-04-18T05:37:23.240Z,2.78
2024-04-18T05:40:10.168Z,2.77
2024-04-18T05:42:56.333Z,2.80
2024-04-18T05:46:02.835Z,2.82
2024-04-18T05:48:49.297Z,2.84
2024-04-18T05:51:35.259Z,2.87
2024-04-18T05:54:40.311Z,2.91
2024-04-18T05:57:26.529Z,2.98
2024-04-18T06:00:13.481Z,3.05
2024-04-18T06:02:59.677Z,3.12
2024-04-18T06:05:46.127Z,3.17
2024-04-18T06:08:32.230Z,3.21
2024-04-18T06:11:18.225Z,3.29
2024-04-18T06:14:06.044Z,3.36
2024-04-18T06:16:53.523Z,3.39
2024-04-18T06:19:59.442Z,3.48
2024-04-18T06:22:50.102Z,3.55
2024-04-18T06:25:45.131Z,3.58
2024-04-18T06:28:31.289Z,3.61
2024-04-18T06:31:18.236Z,3.66
2024-04-18T06:34:04.579Z,3.67
2024-04-18T06:36:51.794Z,3.75
2024-04-18T06:39:38.449Z,3.84
2024-04-18T06:42:25.118Z,3.93
2024-04-18T06:45:11.276Z,3.92
2024-04-18T06:47:57.713Z,3.87
2024-04-18T06:50:44.191Z,3.93
2024-04-18T06:53:30.623Z,4.03
2024-04-18T06:56:17.653Z,4.10
2024-04-18T06:59:04.961Z,4.20
2024-04-18T07:02:00.333Z,4.27
2024-04-18T07:04:47.084Z,4.37
2024-04-18T07:07:33.370Z,4.42
2024-04-18T07:10:19.535Z,4.44
2024-04-18T07:13:13.120Z,4.53
2024-04-18T07:16:13.767Z,4.56
2024-04-18T07:19:15.231Z,4.58
2024-04-18T07:22:12.759Z,4.59
2024-04-18T07:25:14.442Z,4.63
2024-04-18T07:28:00.787Z,4.71
2024-04-18T07:30:47.685Z,4.77
2024-04-18T07:33:35.149Z,4.86
2024-04-18T07:36:34.853Z,4.92
2024-04-18T07:39:26.837Z,5.00
2024-04-18T07:42:13.846Z,5.08
2024-04-18T07:44:59.718Z,5.16
2024-04-18T07:47:46.912Z,5.16
2024-04-18T07:50:32.751Z,5.25
2024-04-18T07:53:18.926Z,5.35
2024-04-18T07:56:09.305Z,5.46
2024-04-18T07:58:56.443Z,5.47
2024-04-18T08:01:46.141Z,5.43
2024-04-18T08:04:50.949Z,5.50
2024-04-18T08:07:40.884Z,5.68
2024-04-18T08:10:36.300Z,5.82
2024-04-18T08:13:35.550Z,5.91
2024-04-18T08:16:24.628Z,5.97
2024-04-18T08:19:10.771Z,6.07
2024-04-18T08:21:56.780Z,6.19
2024-04-18T08:24:42.909Z,6.26
2024-04-18T08:27:29.005Z,6.25
2024-04-18T08:30:15.370Z,6.24
2024-04-18T08:33:01.594Z,6.34
2024-04-18T08:35:47.922Z,6.30
2024-04-18T08:38:34.172Z,6.31
2024-04-18T08:41:21.536Z,6.47
2024-04-18T08:44:07.756Z,6.71
2024-04-18T08:46:54.272Z,6.87
2024-04-18T08:49:41.200Z,7.00
2024-04-18T08:52:35.049Z,7.15
2024-04-18T08:55:24.270Z,7.34
2024-04-18T08:58:12.333Z,7.59
2024-04-18T09:00:58.643Z,7.82
2024-04-18T09:03:45.194Z,7.94
2024-04-18T09:06:32.125Z,8.09
2024-04-18T09:09:20.152Z,8.20
2024-04-18T09:12:07.780Z,8.28
2024-04-18T09:14:54.185Z,8.29
2024-04-18T09:17:40.553Z,8.25
2024-04-18T09:20:26.614Z,8.31
2024-04-18T09:23:12.893Z,8.44
2024-04-18T09:25:59.241Z,8.50
2024-04-18T09:28:46.236Z,8.50
2024-04-18T09:31:38.499Z,8.26
2024-04-18T09:34:32.495Z,7.87
2024-04-18T09:37:18.855Z,7.43
2024-04-18T09:40:11.902Z,7.01
2024-04-18T09:43:19.126Z,6.53
2024-04-18T09:46:07.494Z,6.17
2024-04-18T09:48:56.979Z,5.86
2024-04-18T09:54:23.336Z,5.40
2024-04-18T09:57:11.531Z,5.25
2024-04-18T09:59:59.068Z,5.11
2024-04-18T10:02:48.989Z,5.09
2024-04-18T10:05:37.666Z,5.02
2024-04-18T10:08:28.965Z,4.96
2024-04-18T10:11:22.664Z,4.95
2024-04-18T10:14:12.129Z,4.97
2024-04-18T10:16:58.722Z,5.04
2024-04-18T10:19:46.714Z,5.12
2024-04-18T10:22:45.461Z,5.28
2024-04-18T10:25:45.169Z,5.50
2024-04-18T10:28:35.225Z,5.70
2024-04-18T10:31:22.344Z,5.92
2024-04-18T10:34:08.825Z,6.13
2024-04-18T10:36:57.714Z,6.31
2024-04-18T10:39:45.646Z,6.48
2024-04-18T10:42:37.141Z,6.53
2024-04-18T10:45:23.787Z,6.50
2024-04-18T10:48:10.074Z,6.37
2024-04-18T10:50:56.241Z,6.21
2024-04-18T10:53:42.674Z,6.01
2024-04-18T10:56:30.161Z,5.74
2024-04-18T10:59:16.586Z,5.46
2024-04-18T11:02:10.649Z,5.18
2024-04-18T11:04:57.145Z,4.95
2024-04-18T11:08:03.712Z,4.77
2024-04-18T11:10:52.948Z,4.62
2024-04-18T11:13:39.314Z,4.50
2024-04-18T11:16:26.827Z,4.43
2024-04-18T11:19:13.822Z,4.40
2024-04-18T11:22:03.503Z,4.37
2024-04-18T11:24:49.893Z,4.42
2024-04-18T11:27:40.213Z,4.49
2024-04-18T11:30:27.327Z,4.61
2024-04-18T11:33:13.795Z,4.73
2024-04-18T11:36:00.054Z,4.84
2024-04-18T11:38:49.092Z,4.92
2024-04-18T11:41:35.689Z,4.96
2024-04-18T11:44:21.876Z,4.98
2024-04-18T11:47:08.166Z,5.04
2024-04-18T11:49:54.268Z,5.11
2024-04-18T11:52:40.735Z,5.22
2024-04-18T11:55:27.306Z,5.28
2024-04-18T11:58:13.451Z,5.38
2024-04-18T12:00:59.698Z,5.48
2024-04-18T12:03:58.586Z,5.67
2024-04-18T12:06:51.550Z,5.87
2024-04-18T12:09:52.410Z,6.13
2024-04-18T12:12:38.807Z,6.35
2024-04-18T12:15:40.203Z,6.64
2024-04-18T12:18:26.290Z,6.84
2024-04-18T12:21:12.791Z,6.98
2024-04-18T12:23:58.922Z,7.03
2024-04-18T12:26:54.152Z,7.04
2024-04-18T12:29:40.470Z,7.04
2024-04-18T12:32:27.601Z,7.09
2024-04-18T12:35:14.036Z,7.17
2024-04-18T12:38:00.228Z,7.23
2024-04-18T12:40:46.824Z,7.34
2024-04-18T12:43:33.569Z,7.45
2024-04-18T12:46:23.683Z,7.54
2024-04-18T12:49:10.912Z,7.62
2024-04-18T12:51:57.496Z,7.71
2024-04-18T12:54:44.180Z,7.82
2024-04-18T12:57:42.339Z,7.90
2024-04-18T13:00:48.764Z,7.92
2024-04-18T13:03:56.753Z,8.05
2024-04-18T13:07:01.820Z,8.20
2024-04-18T13:09:47.817Z,8.45
2024-04-18T13:12:34.701Z,8.67
2024-04-18T13:15:40.917Z,8.96
2024-04-18T13:18:27.536Z,9.12
2024-04-18T13:21:16.727Z,9.19
2024-04-18T13:24:02.753Z,9.19
2024-04-18T13:27:07.852Z,9.26
2024-04-18T13:30:12.531Z,9.18
2024-04-18T13:32:58.989Z,8.76
2024-04-18T13:35:45.081Z,8.64
2024-04-18T13:38:32.075Z,8.71
2024-04-18T13:41:19.957Z,8.78
2024-04-18T13:44:06.021Z,8.77
2024-04-18T13:47:00.164Z,8.82
2024-04-18T13:49:58.975Z,8.93
2024-04-18T13:52:45.131Z,9.36
2024-04-18T13:55:31.598Z,9.96
2024-04-18T13:58:18.767Z,10.74
2024-04-18T14:01:17.335Z,11.48
2024-04-18T14:04:21.191Z,12.11
2024-04-18T14:07:07.432Z,12.39
2024-04-18T14:09:56.148Z,12.51
2024-04-18T14:13:01.993Z,12.95
2024-04-18T14:16:24.917Z,13.31
2024-04-18T14:19:11.973Z,12.96
2024-04-18T14:21:58.144Z,12.71
2024-04-18T14:24:44.364Z,12.32
2024-04-18T14:27:50.798Z,11.83
2024-04-18T14:30:55.314Z,11.38
2024-04-18T14:33:41.867Z,11.09
2024-04-18T14:36:27.957Z,10.84
2024-04-18T14:39:14.215Z,10.55
2024-04-18T14:42:00.310Z,10.26
2024-04-18T14:44:48.128Z,10.15
2024-04-18T14:47:34.803Z,10.36
2024-04-18T14:50:21.501Z,11.39
2024-04-18T14:53:25.737Z,12.66
2024-04-18T14:56:28.863Z,13.71
2024-04-18T14:59:21.036Z,14.55
2024-04-18T15:02:07.329Z,15.30
2024-04-18T15:05:15.437Z,16.13
2024-04-18T15:08:18.704Z,16.78
2024-04-18T15:11:10.065Z,17.24
2024-04-18T15:14:16.616Z,17.41
2024-04-18T15:17:03.420Z,16.59
2024-04-18T15:19:49.751Z,16.10
2024-04-18T15:22:54.419Z,15.39
2024-04-18T15:25:43.511Z,14.60
2024-04-18T15:28:31.777Z,13.88
2024-04-18T15:31:27.753Z,13.24
2024-04-18T15:34:17.011Z,12.57
2024-04-18T15:37:15.312Z,11.96
2024-04-18T15:40:17.938Z,11.46
2024-04-18T15:43:22.066Z,11.08
2024-04-18T15:46:08.293Z,10.80
2024-04-18T15:48:54.350Z,10.58
2024-04-18T15:51:40.845Z,10.43
2024-04-18T15:54:27.069Z,10.27
2024-04-18T15:57:13.236Z,10.14
2024-04-18T16:00:19.427Z,10.01
2024-04-18T16:03:06.218Z,9.94
2024-04-18T16:06:11.152Z,9.85
2024-04-18T16:09:03.392Z,9.74
2024-04-18T16:11:58.967Z,9.64
2024-04-18T16:14:48.377Z,9.61
2024-04-18T16:17:34.671Z,9.57
2024-04-18T16:20:30.026Z,9.56
2024-04-18T16:23:17.358Z,9.53
2024-04-18T16:26:03.915Z,9.47
2024-04-18T16:28:54.169Z,9.42
2024-04-18T16:31:40.272Z,9.34
2024-04-18T16:34:35.416Z,9.23
2024-04-18T16:37:23.671Z,9.19
2024-04-18T16:40:31.574Z,9.11
2024-04-18T16:43:17.655Z,9.05
2024-04-18T16:46:19.282Z,9.01
2024-04-18T16:49:05.526Z,8.96
2024-04-18T16:51:52.671Z,8.89
2024-04-18T16:54:49.624Z,8.85
2024-04-18T16:57:56.247Z,8.78
2024-04-18T17:00:42.499Z,8.66
2024-04-18T17:03:32.208Z,8.56
2024-04-18T17:06:18.540Z,8.45
2024-04-18T17:09:05.104Z,8.39
2024-04-18T17:11:51.464Z,8.31
2024-04-18T17:14:56.802Z,8.24
2024-04-18T17:17:42.816Z,8.20
2024-04-18T17:20:43.964Z,8.15
2024-04-18T17:23:30.566Z,8.10
2024-04-18T17:26:16.816Z,8.06
2024-04-18T17:29:03.523Z,8.03
2024-04-18T17:31:59.269Z,7.97
2024-04-18T17:34:45.557Z,7.93
2024-04-18T17:37:52.909Z,7.86
2024-04-18T17:40:41.773Z,7.80
2024-04-18T17:43:27.715Z,7.74
2024-04-18T17:46:16.175Z,7.64
2024-04-18T17:49:05.530Z,7.59
2024-04-18T17:51:52.384Z,7.53
2024-04-18T17:54:38.876Z,7.47
2024-04-18T17:57:25.240Z,7.38
2024-04-18T18:00:31.205Z,7.30
2024-04-18T18:03:17.552Z,7.24
2024-04-18T18:06:03.666Z,7.17
2024-04-18T18:08:49.624Z,7.12
2024-04-18T18:11:44.820Z,7.06
2024-04-18T18:14:30.959Z,6.99
2024-04-18T18:17:17.168Z,6.91
2024-04-18T18:20:04.232Z,6.84
2024-04-18T18:23:06.840Z,6.72
2024-04-18T18:25:52.547Z,6.56
2024-04-18T18:28:38.815Z,6.40
2024-04-18T18:31:25.538Z,6.29
2024-04-18T18:34:26.924Z,6.17
2024-04-18T18:37:13.885Z,6.09
2024-04-18T18:40:01.390Z,6.02
2024-04-18T18:42:50.473Z,5.94
2024-04-18T18:45:41.011Z,5.86
2024-04-18T18:48:35.870Z,5.76
2024-04-18T18:54:48.582Z,5.50
2024-04-18T18:57:37.559Z,5.39
2024-04-18T19:00:28.883Z,5.30
2024-04-18T19:03:28.144Z,5.17
2024-04-18T19:06:20.119Z,4.99
2024-04-18T19:09:07.515Z,4.90
2024-04-18T19:11:56.779Z,4.81
2024-04-18T19:14:43.374Z,4.69
2024-04-18T19:17:29.448Z,4.59
2024-04-18T19:20:15.753Z,4.49
2024-04-18T19:23:01.973Z,4.40
2024-04-18T19:25:47.919Z,4.31
2024-04-18T19:28:37.007Z,4.22
2024-04-18T19:31:23.209Z,4.13
2024-04-18T19:34:09.384Z,4.05
2024-04-18T19:36:55.650Z,3.96
2024-04-18T19:39:41.880Z,3.88
2024-04-18T19:42:29.817Z,3.77
2024-04-18T19:45:16.015Z,3.65
2024-04-18T19:48:02.669Z,3.54
2024-04-18T19:50:48.721Z,3.36
2024-04-18T19:53:43.949Z,3.24
2024-04-18T19:56:30.297Z,3.12
2024-04-18T19:59:16.360Z,2.99
2024-04-18T20:02:02.626Z,2.88
2024-04-18T20:04:48.813Z,2.81
2024-04-18T20:07:35.185Z,2.75
2024-04-18T20:10:21.324Z,2.69
2024-04-18T20:13:07.712Z,2.63
2024-04-18T20:15:54.250Z,2.54
2024-04-18T20:18:40.314Z,2.48
2024-04-18T20:21:27.001Z,2.41
2024-04-18T20:24:15.562Z,2.36
2024-04-18T20:27:21.443Z,2.27
2024-04-18T20:30:08.394Z,2.18
2024-04-18T20:32:54.958Z,2.12
2024-04-18T20:35:41.174Z,2.00
2024-04-18T20:38:26.867Z,1.91
2024-04-18T20:41:12.973Z,1.86
2024-04-18T20:43:59.795Z,1.84
2024-04-18T20:46:46.036Z,1.81
2024-04-18T20:49:31.933Z,1.72
2024-04-18T20:52:18.025Z,1.65
2024-04-18T20:55:07.652Z,1.59
2024-04-18T20:57:53.878Z,1.55
2024-04-18T21:00:45.536Z,1.53
2024-04-18T21:03:32.624Z,1.50
2024-04-18T21:06:19.206Z,1.46
2024-04-18T21:09:11.044Z,1.40
2024-04-18T21:11:57.503Z,1.35
2024-04-18T21:14:43.746Z,1.30
2024-04-18T21:17:30.255Z,1.26
2024-04-18T21:20:16.391Z,1.23
2024-04-18T21:23:02.719Z,1.15
2024-04-18T21:25:49.130Z,1.08
2024-04-18T21:28:35.311Z,1.02
2024-04-18T21:31:21.378Z,1.01
2024-04-18T21:34:08.908Z,0.98
2024-04-18T21:36:55.065Z,0.95
2024-04-18T21:39:41.328Z,0.93
2024-04-18T21:42:27.558Z,0.90
2024-04-18T21:45:13.629Z,0.88
2024-04-18T21:48:00.296Z,0.86
2024-04-18T21:50:46.921Z,0.84
2024-04-18T21:53:33.308Z,0.78
2024-04-18T21:56:19.457Z,0.71
2024-04-18T21:59:05.763Z,0.66
2024-04-18T22:01:57.956Z,0.61
2024-04-18T22:04:46.617Z,0.60
2024-04-18T22:07:33.176Z,0.56
2024-04-18T22:10:19.810Z,0.53
2024-04-18T22:13:06.199Z,0.53
2024-04-18T22:15:52.455Z,0.51
2024-04-18T22:18:39.233Z,0.51
2024-04-18T22:21:25.704Z,0.47
2024-04-18T22:24:11.837Z,0.46
2024-04-18T22:26:58.147Z,0.43
2024-04-18T22:29:44.624Z,0.42
2024-04-18T22:32:30.700Z,0.40
2024-04-18T22:35:17.028Z,0.37
2024-04-18T22:38:03.224Z,0.35
2024-04-18T22:40:52.677Z,0.31
2024-04-18T22:43:38.660Z,0.29
2024-04-18T22:46:24.959Z,0.27
2024-04-18T22:49:11.116Z,0.28
2024-04-18T22:51:57.338Z,0.29
2024-04-18T22:54:43.602Z,0.30
2024-04-18T22:57:35.625Z,0.31
2024-04-18T23:00:22.943Z,0.32
2024-04-18T23:03:09.681Z,0.36
2024-04-18T23:05:55.945Z,0.38
2024-04-18T23:09:00.482Z,0.44
2024-04-18T23:11:47.118Z,0.50
2024-04-18T23:14:33.645Z,0.55
2024-04-18T23:17:19.851Z,0.59
2024-04-18T23:20:08.410Z,0.62
2024-04-18T23:22:55.027Z,0.65
2024-04-18T23:25:50.306Z,0.64
2024-04-18T23:28:36.589Z,0.68
2024-04-18T23:31:22.408Z,0.71
2024-04-18T23:34:08.700Z,0.76
2024-04-18T23:36:55.089Z,0.79
2024-04-18T23:39:42.212Z,0.84
2024-04-18T23:42:28.657Z,0.87
2024-04-18T23:45:15.010Z,0.91
2024-04-18T23:48:01.295Z,0.98
2024-04-18T23:50:47.406Z,1.03
2024-04-18T23:53:33.755Z,1.07
2024-04-18T23:56:19.923Z,1.13
2024-04-18T23:59:06.148Z,1.17
